Time;durP1;ratioP1;P1;durP2;ratioP2;P2;SDS_P1;SDS_P2;PMS_P1;PMS_P2;Temp;Humidity;BMP_temperature;BMP_pressure;BME280_temperature;BME280_humidity;BME280_pressure;Samples;Min_cycle;Max_cycle;Signal;HPM_P1;HPM_P2
2022/09/16 00:02:05;;;;;;;;;;;;;;;11.38;92.15;101059.16;5047030;28;20338;-55
2022/09/16 00:04:30;;;;;;;;;;;;;;;11.39;92.10;101060.00;5049061;28;19999;-55
2022/09/16 00:06:55;;;;;;;;;;;;;;;11.39;92.17;101052.03;5046693;28;19924;-54
2022/09/16 00:09:20;;;;;;;;;;;;;;;11.40;92.28;101054.50;5042816;28;19974;-55
2022/09/16 00:11:45;;;;;;;;;;;;;;;11.40;92.10;101051.03;5042988;28;19920;-55
2022/09/16 00:14:10;;;;;;;;;;;;;;;11.39;91.93;101052.84;5045839;28;19916;-55
2022/09/16 00:16:36;;;;;;;;;;;;;;;11.40;91.91;101048.38;5045704;28;19999;-54
2022/09/16 00:19:02;;;;;;;;;;;;;;;11.42;91.99;101057.00;5042877;28;19921;-55
2022/09/16 00:21:28;;;;;;;;;;;;;;;11.42;91.96;101057.00;5045040;28;19921;-54
2022/09/16 00:23:54;;;;;;;;;;;;;;;11.42;91.93;101055.16;5045140;28;19931;-54
2022/09/16 00:26:19;;;;;;;;;;;;;;;11.40;91.66;101043.03;5039612;28;19925;-54
2022/09/16 00:28:47;;;;;;;;;;;;;;;11.38;92.01;101048.53;5048479;28;19928;-52
2022/09/16 00:31:12;;;;;;;;;;;;;;;11.36;91.82;101050.53;5048689;28;19985;-57
2022/09/16 00:33:37;;;;;;;;;;;;;;;11.34;91.99;101047.22;5045315;28;19963;-54
2022/09/16 00:36:10;;;;;;;;;;;;;;;11.34;91.78;101049.06;5046298;28;19916;-55
2022/09/16 00:38:35;;;;;;;;;;;;;;;11.34;91.70;101043.72;5048049;28;19921;-55
2022/09/16 00:41:01;;;;;;;;;;;;;;;11.34;91.64;101044.56;5044043;28;19963;-55
2022/09/16 00:43:26;;;;;;;;;;;;;;;11.34;91.88;101044.56;5044143;28;19955;-54
2022/09/16 00:45:59;;;;;;;;;;;;;;;11.32;91.46;101041.25;5046754;28;19924;-54
2022/09/16 00:48:26;;;;;;;;;;;;;;;11.30;91.31;101037.94;5042659;28;19982;-55
2022/09/16 00:51:03;;;;;;;;;;;;;;;11.27;91.28;101038.25;5043861;28;19917;-55
2022/09/16 00:53:32;;;;;;;;;;;;;;;11.26;91.28;101038.41;5044794;28;20003;-55
2022/09/16 00:55:59;;;;;;;;;;;;;;;11.24;90.93;101035.09;5045932;28;20003;-52
2022/09/16 00:58:45;;;;;;;;;;;;;;;11.25;91.07;101037.59;5041076;28;20389;-54
2022/09/16 01:01:10;;;;;;;;;;;;;;;11.27;90.82;101035.59;5041823;28;19924;-55
2022/09/16 01:03:47;;;;;;;;;;;;;;;11.29;90.83;101044.25;5043703;28;19916;-51
2022/09/16 01:06:13;;;;;;;;;;;;;;;11.28;90.43;101042.59;5042729;28;20010;-54
2022/09/16 01:08:41;;;;;;;;;;;;;;;11.27;90.45;101042.72;5046824;28;20341;-53
2022/09/16 01:11:06;;;;;;;;;;;;;;;11.28;90.30;101033.78;5041852;28;20023;-54
2022/09/16 01:13:32;;;;;;;;;;;;;;;11.30;90.41;101037.09;5043208;28;20007;-52
2022/09/16 01:16:11;;;;;;;;;;;;;;;11.30;90.04;101037.09;5043778;28;20629;-54
2022/09/16 01:18:42;;;;;;;;;;;;;;;11.32;90.14;101035.94;5043497;28;19966;-55
2022/09/16 01:21:10;;;;;;;;;;;;;;;11.34;89.98;101031.28;5043929;28;20007;-53
2022/09/16 01:23:54;;;;;;;;;;;;;;;11.38;89.62;101035.25;5040762;28;19917;-55
2022/09/16 01:26:37;;;;;;;;;;;;;;;11.42;89.70;101031.22;5041965;28;19975;-55
2022/09/16 01:29:02;;;;;;;;;;;;;;;11.47;89.62;101033.38;5042059;28;19963;-55
2022/09/16 01:31:37;;;;;;;;;;;;;;;11.47;89.38;101034.22;5038974;28;19967;-54
2022/09/16 01:34:25;;;;;;;;;;;;;;;11.40;89.53;101027.91;5039120;28;20030;-55
2022/09/16 01:36:53;;;;;;;;;;;;;;;11.29;89.15;101035.44;5039303;28;19984;-53
2022/09/16 01:39:41;;;;;;;;;;;;;;;11.21;89.00;101028.28;5043836;28;19925;-52
2022/09/16 01:42:09;;;;;;;;;;;;;;;11.27;89.11;101032.94;5042117;28;20333;-54
2022/09/16 01:44:50;;;;;;;;;;;;;;;11.21;89.24;101033.63;5046560;28;19916;-53
2022/09/16 01:47:29;;;;;;;;;;;;;;;11.10;89.31;101033.97;5038787;28;20652;-55
2022/09/16 01:49:57;;;;;;;;;;;;;;;11.07;89.19;101031.66;5042794;28;20368;-55
2022/09/16 01:52:37;;;;;;;;;;;;;;;11.05;89.11;101028.34;5044251;28;19920;-52
2022/09/16 01:55:05;;;;;;;;;;;;;;;11.00;89.62;101026.19;5044356;28;19921;-55
2022/09/16 01:57:30;;;;;;;;;;;;;;;10.95;89.62;101031.16;5037813;28;20455;-55
2022/09/16 01:59:59;;;;;;;;;;;;;;;10.93;89.99;101029.69;5046361;28;20404;-55
2022/09/16 02:02:37;;;;;;;;;;;;;;;10.92;90.08;101036.00;5042626;28;20015;-55
2022/09/16 02:05:03;;;;;;;;;;;;;;;10.90;89.72;101043.31;5041479;28;19960;-53
2022/09/16 02:07:32;;;;;;;;;;;;;;;10.85;89.92;101028.69;5044605;28;19924;-54
2022/09/16 02:09:59;;;;;;;;;;;;;;;10.83;90.18;101030.69;5042148;28;19955;-55
2022/09/16 02:12:27;;;;;;;;;;;;;;;10.80;90.45;101035.50;5044598;28;20411;-53
2022/09/16 02:14:56;;;;;;;;;;;;;;;10.77;90.78;101039.34;5043850;28;20284;-54
2022/09/16 02:17:24;;;;;;;;;;;;;;;10.69;90.76;101034.00;5042716;28;20014;-55
2022/09/16 02:19:49;;;;;;;;;;;;;;;10.74;91.20;101041.50;5042291;28;20300;-55
2022/09/16 02:22:25;;;;;;;;;;;;;;;10.69;91.35;101038.50;5044398;28;20281;-54
2022/09/16 02:24:50;;;;;;;;;;;;;;;10.66;91.26;101042.31;5046997;28;20577;-55
2022/09/16 02:27:18;;;;;;;;;;;;;;;10.62;91.43;101046.31;5045847;28;19964;-54
2022/09/16 02:29:47;;;;;;;;;;;;;;;10.60;91.89;101045.63;5046967;28;19924;-52
2022/09/16 02:32:13;;;;;;;;;;;;;;;10.56;91.95;101046.97;5042640;28;19917;-55
2022/09/16 02:34:41;;;;;;;;;;;;;;;10.53;91.62;101044.66;5044692;28;19917;-55
2022/09/16 02:37:16;;;;;;;;;;;;;;;10.49;92.04;101038.84;5046212;28;19917;-55
2022/09/16 02:39:44;;;;;;;;;;;;;;;10.48;92.05;101036.34;5041073;28;19921;-53
2022/09/16 02:42:09;;;;;;;;;;;;;;;10.49;91.75;101041.50;5045615;28;19921;-55
2022/09/16 02:44:34;;;;;;;;;;;;;;;10.50;92.20;101037.00;5047173;28;19924;-54
2022/09/16 02:47:04;;;;;;;;;;;;;;;10.51;92.11;101034.19;5047412;28;19927;-54
2022/09/16 02:49:48;;;;;;;;;;;;;;;10.53;92.24;101036.69;5047492;28;20402;-53
2022/09/16 02:52:13;;;;;;;;;;;;;;;10.53;92.37;101036.69;5046326;28;20543;-55
2022/09/16 02:54:51;;;;;;;;;;;;;;;10.53;92.36;101039.34;5049466;28;19921;-56
2022/09/16 02:57:17;;;;;;;;;;;;;;;10.56;92.54;101044.31;5041384;28;19925;-54
2022/09/16 02:59:43;;;;;;;;;;;;;;;10.59;92.16;101041.31;5048616;28;19956;-53
2022/09/16 03:02:08;;;;;;;;;;;;;;;10.62;92.08;101033.03;5044605;28;19940;-53
2022/09/16 03:04:34;;;;;;;;;;;;;;;10.66;91.88;101029.03;5046605;28;20300;-55
2022/09/16 03:06:59;;;;;;;;;;;;;;;10.71;92.52;101032.03;5048295;28;19970;-54
2022/09/16 03:09:24;;;;;;;;;;;;;;;10.77;92.05;101036.69;5046127;28;19989;-54
2022/09/16 03:11:49;;;;;;;;;;;;;;;10.74;91.93;101026.41;5049719;28;20042;-55
2022/09/16 03:14:23;;;;;;;;;;;;;;;10.84;91.59;101037.66;5045615;28;19916;-52
2022/09/16 03:17:02;;;;;;;;;;;;;;;10.89;92.04;101042.47;5047532;28;19977;-54
2022/09/16 03:19:30;;;;;;;;;;;;;;;10.92;92.05;101036.00;5043779;28;20384;-53
2022/09/16 03:22:08;;;;;;;;;;;;;;;10.95;92.01;101030.34;5048152;28;19962;-54
2022/09/16 03:24:41;;;;;;;;;;;;;;;10.94;91.77;101029.50;5043253;28;19939;-55
2022/09/16 03:27:10;;;;;;;;;;;;;;;10.95;91.84;101020.53;5043270;28;19917;-55
2022/09/16 03:30:02;;;;;;;;;;;;;;;10.93;91.94;101017.22;5046155;28;19925;-53
2022/09/16 03:32:30;;;;;;;;;;;;;;;10.95;92.21;101025.84;5042655;28;19924;-55
2022/09/16 03:35:01;;;;;;;;;;;;;;;10.97;91.82;101031.81;5044692;28;20493;-55
2022/09/16 03:37:28;;;;;;;;;;;;;;;10.97;91.57;101031.00;5047042;28;19943;-55
2022/09/16 03:39:56;;;;;;;;;;;;;;;10.95;91.36;101028.50;5048159;28;19925;-54
2022/09/16 03:42:21;;;;;;;;;;;;;;;10.92;91.48;101020.88;5042233;28;19931;-55
2022/09/16 03:44:46;;;;;;;;;;;;;;;10.92;91.04;101026.19;5050581;28;19920;-53
2022/09/16 03:47:12;;;;;;;;;;;;;;;10.91;91.37;101023.69;5044864;28;19992;-53
2022/09/16 03:49:37;;;;;;;;;;;;;;;10.91;91.13;101018.38;5046815;28;19952;-52
2022/09/16 03:52:07;;;;;;;;;;;;;;;10.88;91.13;101021.38;5045197;28;19917;-55
2022/09/16 03:54:32;;;;;;;;;;;;;;;10.88;91.13;101029.34;5049456;28;19971;-53
2022/09/16 03:56:59;;;;;;;;;;;;;;;10.85;91.73;101022.56;5048820;28;19956;-54
2022/09/16 03:59:24;;;;;;;;;;;;;;;10.83;92.02;101024.56;5051782;28;19921;-55
2022/09/16 04:01:49;;;;;;;;;;;;;;;10.82;91.77;101026.38;5043156;28;19917;-54
2022/09/16 04:04:14;;;;;;;;;;;;;;;10.81;91.72;101024.72;5045221;28;19932;-54
2022/09/16 04:06:40;;;;;;;;;;;;;;;10.80;91.49;101031.03;5046176;28;20075;-56
2022/09/16 04:09:06;;;;;;;;;;;;;;;10.80;91.62;101031.03;5053765;28;19912;-54
2022/09/16 04:11:33;;;;;;;;;;;;;;;10.79;92.08;101025.88;5044102;28;20388;-55
2022/09/16 04:13:58;;;;;;;;;;;;;;;10.77;92.27;101030.53;5045989;28;20062;-55
2022/09/16 04:16:23;;;;;;;;;;;;;;;10.77;92.54;101027.88;5053546;28;19995;-54
2022/09/16 04:18:48;;;;;;;;;;;;;;;10.76;92.19;101029.72;5048668;28;19924;-54
2022/09/16 04:21:14;;;;;;;;;;;;;;;10.75;92.03;101029.88;5044787;28;19921;-55
2022/09/16 04:23:39;;;;;;;;;;;;;;;10.73;92.16;101045.16;5046073;28;19917;-52
2022/09/16 04:26:05;;;;;;;;;;;;;;;10.70;92.24;101043.66;5051545;28;19919;-54
2022/09/16 04:28:31;;;;;;;;;;;;;;;10.69;92.53;101047.28;5046856;28;19927;-54
2022/09/16 04:31:03;;;;;;;;;;;;;;;10.70;92.71;101034.88;5040460;28;19917;-54
2022/09/16 04:33:29;;;;;;;;;;;;;;;10.73;92.34;101030.06;5042604;28;19920;-54
2022/09/16 04:36:00;;;;;;;;;;;;;;;10.75;92.34;101033.38;5047449;28;19921;-54
2022/09/16 04:38:25;;;;;;;;;;;;;;;10.75;92.83;101029.88;5044150;28;19923;-53
2022/09/16 04:40:53;;;;;;;;;;;;;;;10.76;93.06;101024.41;5043510;28;19999;-55
2022/09/16 04:43:18;;;;;;;;;;;;;;;10.78;93.31;101017.09;5047707;28;19964;-52
2022/09/16 04:45:43;;;;;;;;;;;;;;;10.80;93.25;101011.59;5048133;28;20376;-54
2022/09/16 04:48:08;;;;;;;;;;;;;;;10.82;93.59;101001.63;5045977;28;19916;-54
2022/09/16 04:50:33;;;;;;;;;;;;;;;10.82;93.33;101001.63;5049929;28;20402;-54
2022/09/16 04:52:59;;;;;;;;;;;;;;;10.81;93.69;101006.13;5048162;28;19917;-54
2022/09/16 04:55:24;;;;;;;;;;;;;;;10.84;93.19;101012.94;5042157;28;20363;-52
2022/09/16 04:57:49;;;;;;;;;;;;;;;10.83;92.77;101022.72;5044652;28;20003;-53
2022/09/16 05:00:15;;;;;;;;;;;;;;;10.79;93.05;101028.53;5047836;28;19917;-52
2022/09/16 05:02:42;;;;;;;;;;;;;;;10.84;92.66;101032.34;5043191;28;19917;-53
2022/09/16 05:05:07;;;;;;;;;;;;;;;10.88;92.80;101032.84;5048148;28;19921;-54
2022/09/16 05:07:32;;;;;;;;;;;;;;;10.85;92.58;101027.88;5048661;28;19924;-52
2022/09/16 05:09:58;;;;;;;;;;;;;;;10.83;92.67;101029.88;5044431;28;19959;-54
2022/09/16 05:12:23;;;;;;;;;;;;;;;10.84;92.42;101028.88;5045671;28;19928;-52
2022/09/16 05:14:48;;;;;;;;;;;;;;;10.83;92.27;101043.16;5049954;28;19912;-53
2022/09/16 05:17:13;;;;;;;;;;;;;;;10.83;92.58;101041.31;5047663;28;19946;-54
2022/09/16 05:19:38;;;;;;;;;;;;;;;10.81;92.35;101032.69;5047049;28;19920;-53
2022/09/16 05:22:06;;;;;;;;;;;;;;;10.80;92.40;101017.75;5037658;28;20395;-54
2022/09/16 05:24:32;;;;;;;;;;;;;;;10.78;92.12;101019.75;5049197;28;19995;-54
2022/09/16 05:26:57;;;;;;;;;;;;;;;10.76;92.35;101019.09;5048413;28;19917;-55
2022/09/16 05:29:23;;;;;;;;;;;;;;;10.73;92.17;101022.06;5045987;28;19962;-55
2022/09/16 05:31:48;;;;;;;;;;;;;;;10.71;92.59;101023.25;5047342;28;19939;-54
2022/09/16 05:34:13;;;;;;;;;;;;;;;10.71;92.06;101023.25;5046473;28;19916;-53
2022/09/16 05:36:39;;;;;;;;;;;;;;;10.71;92.68;101028.56;5046416;28;19913;-54
2022/09/16 05:39:05;;;;;;;;;;;;;;;10.69;92.71;101030.53;5043824;28;19952;-52
2022/09/16 05:41:30;;;;;;;;;;;;;;;10.67;92.45;101030.69;5039834;28;19917;-52
2022/09/16 05:43:59;;;;;;;;;;;;;;;10.67;92.63;101032.50;5045317;28;20403;-53
2022/09/16 05:46:25;;;;;;;;;;;;;;;10.65;92.91;101039.81;5043644;28;19917;-54
2022/09/16 05:48:50;;;;;;;;;;;;;;;10.65;92.94;101035.34;5043741;28;19924;-55
2022/09/16 05:51:16;;;;;;;;;;;;;;;10.66;92.72;101038.81;5046121;28;20047;-54
2022/09/16 05:53:42;;;;;;;;;;;;;;;10.66;92.81;101046.78;5038365;28;20011;-55
2022/09/16 05:56:12;;;;;;;;;;;;;;;10.68;92.77;101039.50;5048636;28;20019;-54
2022/09/16 05:58:38;;;;;;;;;;;;;;;10.68;93.10;101037.66;5056034;28;19969;-52
2022/09/16 06:01:05;;;;;;;;;;;;;;;10.71;92.81;101050.63;5048964;28;19917;-54
2022/09/16 06:03:31;;;;;;;;;;;;;;;10.74;92.60;101055.63;5045626;28;19958;-54
2022/09/16 06:05:59;;;;;;;;;;;;;;;10.79;92.74;101057.75;5054186;28;19952;-54
2022/09/16 06:08:25;;;;;;;;;;;;;;;10.84;92.44;101052.78;5048334;28;19916;-54
2022/09/16 06:10:50;;;;;;;;;;;;;;;10.86;92.70;101051.59;5047353;28;19995;-54
2022/09/16 06:13:18;;;;;;;;;;;;;;;10.85;92.45;101047.28;5043588;28;19924;-54
2022/09/16 06:15:50;;;;;;;;;;;;;;;10.87;92.40;101041.81;5051988;28;20427;-54
2022/09/16 06:18:15;;;;;;;;;;;;;;;10.84;92.90;101045.63;5047275;28;19960;-54
2022/09/16 06:20:40;;;;;;;;;;;;;;;10.83;93.12;101053.78;5049127;28;20030;-55
2022/09/16 06:23:05;;;;;;;;;;;;;;;10.84;93.32;101061.56;5043503;28;20571;-54
2022/09/16 06:25:30;;;;;;;;;;;;;;;10.88;93.44;101063.91;5050824;28;19928;-54
2022/09/16 06:27:56;;;;;;;;;;;;;;;10.92;93.25;101065.22;5046630;28;19995;-54
2022/09/16 06:30:21;;;;;;;;;;;;;;;10.98;93.10;101077.84;5046769;28;19941;-54
2022/09/16 06:32:46;;;;;;;;;;;;;;;11.06;93.39;101077.84;5051955;28;19935;-54
2022/09/16 06:35:11;;;;;;;;;;;;;;;11.10;93.33;101076.50;5052015;28;19912;-54
2022/09/16 06:37:37;;;;;;;;;;;;;;;11.18;93.78;101076.50;5049346;28;19959;-54
2022/09/16 06:40:02;;;;;;;;;;;;;;;11.22;93.90;101072.50;5050805;28;19917;-53
2022/09/16 06:42:27;;;;;;;;;;;;;;;11.22;93.67;101072.50;5047725;28;20166;-52
2022/09/16 06:44:53;;;;;;;;;;;;;;;11.19;94.10;101067.50;5045260;28;19916;-54
2022/09/16 06:47:18;;;;;;;;;;;;;;;11.17;94.15;101065.03;5044873;28;19945;-54
2022/09/16 06:49:43;;;;;;;;;;;;;;;11.13;94.27;101076.16;5047860;28;20311;-53
2022/09/16 06:52:10;;;;;;;;;;;;;;;11.13;94.31;101069.03;5041190;28;19925;-54
2022/09/16 06:54:35;;;;;;;;;;;;;;;11.18;94.87;101071.16;5047631;28;19927;-50
2022/09/16 06:57:00;;;;;;;;;;;;;;;11.22;94.66;101063.69;5046335;28;19917;-53
2022/09/16 06:59:26;;;;;;;;;;;;;;;11.23;94.87;101066.16;5043931;28;20289;-54
2022/09/16 07:01:51;;;;;;;;;;;;;;;11.28;95.06;101061.19;5050252;28;19913;-53
2022/09/16 07:04:16;;;;;;;;;;;;;;;11.31;95.42;101075.97;5053729;28;20318;-52
2022/09/16 07:06:42;;;;;;;;;;;;;;;11.36;95.67;101068.31;5047479;28;19917;-54
2022/09/16 07:09:07;;;;;;;;;;;;;;;11.37;95.58;101062.84;5050412;28;19913;-54
2022/09/16 07:11:32;;;;;;;;;;;;;;;11.46;95.29;101084.91;5048124;28;19979;-53
2022/09/16 07:13:59;;;;;;;;;;;;;;;11.53;95.31;101077.06;5049969;28;19982;-54
2022/09/16 07:16:25;;;;;;;;;;;;;;;11.56;95.31;101077.56;5048454;28;19921;-53
2022/09/16 07:18:53;;;;;;;;;;;;;;;11.61;95.01;101077.06;5046015;28;19929;-55
2022/09/16 07:21:21;;;;;;;;;;;;;;;11.64;94.82;101077.53;5045737;28;20273;-53
2022/09/16 07:23:47;;;;;;;;;;;;;;;11.71;95.06;101075.03;5049262;28;19917;-52
2022/09/16 07:26:12;;;;;;;;;;;;;;;11.79;95.16;101080.34;5052995;28;19917;-53
2022/09/16 07:28:38;;;;;;;;;;;;;;;11.95;95.49;101074.97;5052911;28;19940;-52
2022/09/16 07:31:04;;;;;;;;;;;;;;;12.06;95.18;101089.69;5049683;28;19913;-53
2022/09/16 07:33:32;;;;;;;;;;;;;;;12.12;94.87;101090.81;5048376;28;20446;-55
2022/09/16 07:36:00;;;;;;;;;;;;;;;12.24;94.65;101094.78;5045636;28;19968;-51
2022/09/16 07:38:26;;;;;;;;;;;;;;;12.20;94.46;101088.16;5048191;28;20565;-54
2022/09/16 07:40:51;;;;;;;;;;;;;;;12.20;93.92;101093.47;5043527;28;19995;-53
2022/09/16 07:43:16;;;;;;;;;;;;;;;12.23;93.87;101093.94;5047117;28;19913;-54
2022/09/16 07:45:42;;;;;;;;;;;;;;;12.19;93.49;101089.97;5049550;28;20004;-54
2022/09/16 07:48:07;;;;;;;;;;;;;;;12.15;93.22;101085.19;5047648;28;19959;-55
2022/09/16 07:50:32;;;;;;;;;;;;;;;12.08;93.42;101091.19;5046188;28;19921;-55
2022/09/16 07:52:57;;;;;;;;;;;;;;;12.04;93.09;101086.38;5041909;28;19913;-54
2022/09/16 07:55:22;;;;;;;;;;;;;;;12.09;93.19;101089.34;5053042;28;19916;-53
2022/09/16 07:57:47;;;;;;;;;;;;;;;12.12;93.74;101089.00;5045586;28;20395;-54
2022/09/16 08:00:15;;;;;;;;;;;;;;;12.14;93.77;101094.16;5050305;28;19924;-54
2022/09/16 08:02:40;;;;;;;;;;;;;;;12.19;93.43;101102.47;5046826;28;20008;-54
2022/09/16 08:05:05;;;;;;;;;;;;;;;12.28;93.23;101096.91;5044815;28;20386;-54
2022/09/16 08:07:30;;;;;;;;;;;;;;;12.26;93.40;101092.75;5037331;28;19913;-53
2022/09/16 08:09:55;;;;;;;;;;;;;;;12.33;93.52;101094.53;5038850;28;19920;-52
2022/09/16 08:12:21;;;;;;;;;;;;;;;12.33;92.97;101096.38;5045835;28;19913;-54
2022/09/16 08:14:46;;;;;;;;;;;;;;;12.41;92.68;101106.97;5043621;28;19917;-54
2022/09/16 08:17:11;;;;;;;;;;;;;;;12.43;92.80;101098.81;4979903;28;1705457;-54
2022/09/16 08:19:38;;;;;;;;;;;;;;;12.48;92.43;101096.47;5052299;28;19920;-55
2022/09/16 08:22:03;;;;;;;;;;;;;;;12.52;92.33;101111.09;5051859;28;19912;-55
2022/09/16 08:24:28;;;;;;;;;;;;;;;12.58;92.11;101102.38;5044998;28;20553;-54
2022/09/16 08:26:53;;;;;;;;;;;;;;;12.71;92.12;101105.28;5051419;28;20356;-55
2022/09/16 08:29:21;;;;;;;;;;;;;;;12.78;91.87;101108.06;5050221;28;20012;-54
2022/09/16 08:31:46;;;;;;;;;;;;;;;12.86;91.13;101110.66;5045766;28;19939;-53
2022/09/16 08:34:11;;;;;;;;;;;;;;;12.93;91.01;101106.28;5046709;28;20000;-53
2022/09/16 08:36:36;;;;;;;;;;;;;;;13.05;90.88;101114.69;5051232;28;19969;-54
2022/09/16 08:39:02;;;;;;;;;;;;;;;13.10;90.70;101118.47;5052180;28;19916;-53
2022/09/16 08:41:46;;;;;;;;;;;;;;;13.20;90.35;101115.56;5044045;28;20054;-54
2022/09/16 08:44:15;;;;;;;;;;;;;;;13.34;90.31;101122.78;5046378;28;19964;-54
2022/09/16 08:46:50;;;;;;;;;;;;;;;13.32;89.28;101117.63;5037543;28;19913;-55
2022/09/16 08:49:34;;;;;;;;;;;;;;;13.37;88.28;101119.75;5044756;28;19948;-53
2022/09/16 08:52:01;;;;;;;;;;;;;;;13.36;87.36;101112.75;5044462;28;19932;-53
2022/09/16 08:54:30;;;;;;;;;;;;;;;13.42;86.13;101113.88;5051588;28;20308;-55
2022/09/16 08:56:58;;;;;;;;;;;;;;;13.47;86.03;101116.81;5052938;28;20296;-55
2022/09/16 08:59:26;;;;;;;;;;;;;;;13.51;85.55;101115.44;5044534;28;19921;-55
2022/09/16 09:02:10;;;;;;;;;;;;;;;13.59;84.87;101115.38;5043447;28;19920;-53
2022/09/16 09:04:36;;;;;;;;;;;;;;;13.69;84.47;101120.41;5042860;28;20332;-54
2022/09/16 09:07:11;;;;;;;;;;;;;;;13.75;83.37;101117.00;5040396;28;20011;-52
2022/09/16 09:09:59;;;;;;;;;;;;;;;13.77;83.42;101104.31;5041885;28;20017;-54
2022/09/16 09:12:37;;;;;;;;;;;;;;;13.94;82.59;101119.13;5044434;28;19924;-53
2022/09/16 09:15:05;;;;;;;;;;;;;;;13.99;82.44;101126.56;5043500;28;20324;-55
2022/09/16 09:17:40;;;;;;;;;;;;;;;14.06;82.24;101114.94;5043150;28;20841;-54
2022/09/16 09:20:14;;;;;;;;;;;;;;;14.20;82.52;101129.31;5038076;28;19924;-55
2022/09/16 09:22:39;;;;;;;;;;;;;;;14.34;81.52;101138.31;5038833;28;19925;-54
2022/09/16 09:25:23;;;;;;;;;;;;;;;14.44;81.13;101162.91;5040351;28;19923;-56
2022/09/16 09:27:51;;;;;;;;;;;;;;;14.36;80.02;101187.84;5042218;28;20019;-53
2022/09/16 09:30:19;;;;;;;;;;;;;;;14.06;78.50;101184.38;5041518;28;19935;-55
2022/09/16 09:33:03;;;;;;;;;;;;;;;13.71;78.44;101185.13;5048326;28;19965;-55
2022/09/16 09:35:54;;;;;;;;;;;;;;;13.39;78.45;101175.59;5047567;28;19913;-53
2022/09/16 09:38:19;;;;;;;;;;;;;;;12.99;78.53;101167.69;5017088;28;19928;-54
2022/09/16 09:40:47;;;;;;;;;;;;;;;12.80;78.90;101167.34;5040001;28;19917;-54
2022/09/16 09:43:24;;;;;;;;;;;;;;;12.62;79.38;101163.13;5042727;28;20007;-55
2022/09/16 09:46:13;;;;;;;;;;;;;;;12.43;79.82;101158.22;5045871;28;20003;-54
2022/09/16 09:48:38;;;;;;;;;;;;;;;12.31;80.35;101151.66;5015471;28;20447;-53
2022/09/16 09:51:15;;;;;;;;;;;;;;;12.23;80.86;101149.03;5045330;28;20375;-55
2022/09/16 09:53:48;;;;;;;;;;;;;;;12.06;81.42;101140.28;5044840;28;19924;-55
2022/09/16 09:56:26;;;;;;;;;;;;;;;11.94;81.32;101142.50;5039587;28;20003;-54
2022/09/16 09:58:54;;;;;;;;;;;;;;;11.78;82.07;101142.53;5045892;28;19925;-53
2022/09/16 10:01:19;;;;;;;;;;;;;;;11.71;82.52;101142.38;5041208;28;19947;-55
2022/09/16 10:03:46;;;;;;;;;;;;;;;11.67;82.95;101150.88;5044191;28;20456;-54
2022/09/16 10:06:11;;;;;;;;;;;;;;;11.65;83.57;101155.53;5038966;28;19948;-53
2022/09/16 10:08:50;;;;;;;;;;;;;;;11.64;83.97;101146.72;5042974;28;19951;-55
2022/09/16 10:11:19;;;;;;;;;;;;;;;11.67;84.09;101135.72;5042765;28;19924;-52
2022/09/16 10:13:49;;;;;;;;;;;;;;;11.68;84.43;101132.06;5044327;28;20094;-54
2022/09/16 10:16:17;;;;;;;;;;;;;;;11.69;84.36;101133.72;5043535;28;19923;-55
2022/09/16 10:18:42;;;;;;;;;;;;;;;11.70;84.80;101139.88;5046316;28;19920;-55
2022/09/16 10:21:11;;;;;;;;;;;;;;;11.71;85.26;101139.72;5044265;28;19982;-55
2022/09/16 10:23:37;;;;;;;;;;;;;;;11.71;85.50;101142.38;5039365;28;19928;-53
2022/09/16 10:26:15;;;;;;;;;;;;;;;11.77;85.96;101141.69;5042479;28;19925;-54
2022/09/16 10:28:41;;;;;;;;;;;;;;;11.94;86.25;101142.50;5044051;28;19939;-55
2022/09/16 10:31:07;;;;;;;;;;;;;;;12.14;86.42;101142.91;5041523;28;19917;-55
2022/09/16 10:33:35;;;;;;;;;;;;;;;12.32;86.39;101135.50;5046904;28;20375;-55
2022/09/16 10:36:08;;;;;;;;;;;;;;;12.48;86.99;101139.09;5045597;28;19923;-54
2022/09/16 10:38:44;;;;;;;;;;;;;;;12.63;87.15;101129.31;5040855;28;19942;-54
2022/09/16 10:41:14;;;;;;;;;;;;;;;12.85;87.22;101128.50;5038876;28;20000;-55
2022/09/16 10:43:45;;;;;;;;;;;;;;;13.04;87.49;101132.53;5045369;28;19925;-55
2022/09/16 10:46:13;;;;;;;;;;;;;;;13.26;87.34;101134.34;5048282;28;20380;-55
2022/09/16 10:48:40;;;;;;;;;;;;;;;13.41;87.28;101125.56;5050900;28;19913;-54
2022/09/16 10:51:15;;;;;;;;;;;;;;;13.51;86.90;101129.59;5050286;28;20007;-55
2022/09/16 10:53:44;;;;;;;;;;;;;;;13.58;85.64;101122.50;5051191;28;19978;-54
2022/09/16 10:56:16;;;;;;;;;;;;;;;13.63;85.36;101124.66;5044793;28;19973;-55
2022/09/16 10:58:41;;;;;;;;;;;;;;;13.72;84.74;101122.72;5054462;28;19921;-54
2022/09/16 11:01:18;;;;;;;;;;;;;;;13.79;84.92;101119.13;5053229;28;20272;-54
2022/09/16 11:03:58;;;;;;;;;;;;;;;13.80;84.51;101120.78;5049284;28;20338;-55
2022/09/16 11:06:48;;;;;;;;;;;;;;;13.83;83.74;101125.75;5041606;28;19917;-56
2022/09/16 11:09:22;;;;;;;;;;;;;;;13.84;83.97;101126.56;5044087;28;19920;-55
2022/09/16 11:11:59;;;;;;;;;;;;;;;13.89;83.63;101124.19;5050758;28;19939;-55
2022/09/16 11:14:27;;;;;;;;;;;;;;;13.95;83.16;101124.28;5048194;28;19917;-55
2022/09/16 11:17:18;;;;;;;;;;;;;;;14.05;82.92;101123.16;5044830;28;20015;-54
2022/09/16 11:19:59;;;;;;;;;;;;;;;14.18;82.75;101132.19;5058486;28;19916;-55
2022/09/16 11:22:25;;;;;;;;;;;;;;;14.26;82.35;101133.91;5040516;28;19942;-54
2022/09/16 11:24:59;;;;;;;;;;;;;;;14.35;81.08;101137.28;5048351;28;19923;-55
2022/09/16 11:27:33;;;;;;;;;;;;;;;14.26;79.14;101126.72;5049098;28;19923;-55
2022/09/16 11:30:01;;;;;;;;;;;;;;;14.41;78.49;101131.19;5045573;28;19917;-55
2022/09/16 11:32:34;;;;;;;;;;;;;;;14.58;77.11;101124.63;5052529;28;19912;-55
2022/09/16 11:35:16;;;;;;;;;;;;;;;14.86;77.76;101132.72;5050707;28;19935;-52
2022/09/16 11:38:00;;;;;;;;;;;;;;;15.00;77.19;101145.19;5039579;28;19929;-53
2022/09/16 11:40:31;;;;;;;;;;;;;;;15.02;75.70;101193.13;5042345;28;19970;-53
2022/09/16 11:43:15;;;;;;;;;;;;;;;14.79;74.55;101214.72;5042905;28;20447;-55
2022/09/16 11:45:51;;;;;;;;;;;;;;;14.47;74.17;101207.97;5040249;28;19917;-54
2022/09/16 11:48:28;;;;;;;;;;;;;;;14.12;74.49;101204.19;5042379;28;20518;-54
2022/09/16 11:51:12;;;;;;;;;;;;;;;13.85;74.76;101201.13;5046006;28;19917;-54
2022/09/16 11:53:37;;;;;;;;;;;;;;;13.63;74.88;101191.38;5042673;28;19921;-53
2022/09/16 11:56:05;;;;;;;;;;;;;;;13.57;75.56;101184.06;5041786;28;19959;-53
2022/09/16 11:58:30;;;;;;;;;;;;;;;13.58;76.28;101188.41;5047912;28;20487;-53
2022/09/16 12:00:58;;;;;;;;;;;;;;;13.64;76.93;101179.69;5046910;28;19921;-54
2022/09/16 12:03:34;;;;;;;;;;;;;;;13.69;77.57;101179.97;5042497;28;20431;-52
2022/09/16 12:06:06;;;;;;;;;;;;;;;13.71;77.75;101172.59;5048406;28;19927;-55
2022/09/16 12:08:43;;;;;;;;;;;;;;;13.68;77.94;101175.63;5047447;28;19968;-53
2022/09/16 12:11:18;;;;;;;;;;;;;;;13.73;77.96;101173.25;5044719;28;19924;-55
2022/09/16 12:14:06;;;;;;;;;;;;;;;13.79;78.66;101169.00;5051938;28;19963;-55
2022/09/16 12:16:38;;;;;;;;;;;;;;;13.88;78.82;101170.59;5036672;28;19916;-53
2022/09/16 12:19:17;;;;;;;;;;;;;;;14.01;79.05;101170.78;5054372;28;19923;-54
2022/09/16 12:21:48;;;;;;;;;;;;;;;14.18;79.11;101169.56;5047690;28;19943;-56
2022/09/16 12:24:26;;;;;;;;;;;;;;;14.44;79.62;101165.56;5048532;28;19955;-54
2022/09/16 12:27:12;;;;;;;;;;;;;;;14.70;79.52;101159.69;5053566;28;19913;-56
2022/09/16 12:29:50;;;;;;;;;;;;;;;14.76;78.60;101156.28;5045865;28;19999;-54
2022/09/16 12:32:24;;;;;;;;;;;;;;;14.76;78.50;101156.28;5043610;28;20281;-56
2022/09/16 12:34:59;;;;;;;;;;;;;;;14.74;78.47;101163.63;5045767;28;19923;-56
2022/09/16 12:37:30;;;;;;;;;;;;;;;14.64;78.07;101171.97;5047316;28;20316;-55
2022/09/16 12:39:55;;;;;;;;;;;;;;;14.48;77.64;101186.41;5049436;28;19928;-54
2022/09/16 12:42:39;;;;;;;;;;;;;;;14.34;78.42;101187.22;5041716;28;20003;-55
2022/09/16 12:45:23;;;;;;;;;;;;;;;14.19;78.56;101189.09;5035257;28;19928;-55
2022/09/16 12:47:57;;;;;;;;;;;;;;;13.91;78.61;101189.75;5041483;28;19967;-56